createdAt,value
2023-02-27T00:10:01.894Z,3.20
2023-02-27T00:20:05.867Z,2.57
2023-02-27T00:30:13.043Z,2.27
2023-02-27T00:40:17.008Z,2.73
2023-02-27T00:50:21.795Z,3.00
2023-02-27T01:00:25.408Z,2.73
2023-02-27T01:10:32.035Z,3.17
2023-02-27T01:20:35.311Z,2.60
2023-02-27T01:30:40.939Z,2.70
2023-02-27T01:40:44.457Z,2.83
2023-02-27T01:50:51.935Z,2.77
2023-02-27T02:00:56.238Z,2.80
2023-02-27T02:11:02.006Z,2.83
2023-02-27T02:21:38.404Z,2.83
2023-02-27T02:32:14.395Z,2.93
2023-02-27T02:42:26.786Z,2.93
2023-02-27T02:52:40.063Z,2.93
2023-02-27T03:02:49.191Z,3.50
2023-02-27T03:12:59.628Z,2.40
2023-02-27T03:23:08.288Z,2.77
2023-02-27T03:33:15.143Z,2.80
2023-02-27T03:43:28.724Z,2.60
2023-02-27T03:53:38.678Z,3.27
2023-02-27T04:03:50.525Z,2.70
2023-02-27T04:14:27.753Z,2.97
2023-02-27T04:24:38.788Z,3.37
2023-02-27T04:34:44.984Z,3.17
2023-02-27T04:44:51.874Z,3.20
2023-02-27T04:55:00.643Z,3.13
2023-02-27T05:05:14.334Z,2.97
2023-02-27T05:15:23.245Z,2.90
2023-02-27T05:25:34.604Z,5.30
2023-02-27T05:35:46.170Z,3.10
2023-02-27T05:45:57.193Z,3.03
2023-02-27T05:56:03.944Z,3.60
2023-02-27T06:06:12.779Z,3.57
2023-02-27T06:16:17.901Z,3.10
2023-02-27T06:26:22.396Z,3.47
2023-02-27T06:36:29.475Z,3.23
2023-02-27T06:46:34.362Z,3.43
2023-02-27T06:56:37.625Z,2.80
2023-02-27T07:07:35.607Z,2.90
2023-02-27T07:17:05.889Z,3.50
2023-02-27T07:27:10.509Z,4.10
2023-02-27T07:37:13.748Z,3.50
2023-02-27T07:47:18.705Z,3.57
2023-02-27T07:57:22.004Z,4.40
2023-02-27T08:07:27.007Z,3.23
2023-02-27T08:17:30.294Z,3.20
2023-02-27T08:27:35.112Z,3.23
2023-02-27T08:37:39.126Z,3.23
2023-02-27T08:47:45.259Z,4.07
2023-02-27T08:57:48.493Z,3.23
2023-02-27T09:07:53.101Z,4.47
2023-02-27T09:18:00.191Z,3.37
2023-02-27T09:28:04.874Z,3.83
2023-02-27T09:38:08.324Z,3.37
2023-02-27T09:48:21.572Z,3.83
2023-02-27T09:58:40.012Z,4.00
2023-02-27T10:08:53.227Z,4.87
2023-02-27T10:18:59.142Z,3.77
2023-02-27T10:29:15.225Z,4.50
2023-02-27T10:39:20.901Z,3.90
2023-02-27T10:49:25.964Z,3.70
2023-02-27T10:59:32.567Z,3.90
2023-02-27T11:09:37.840Z,4.37
2023-02-27T11:19:41.529Z,3.97
2023-02-27T11:29:58.022Z,4.57
2023-02-27T11:40:12.872Z,3.77
2023-02-27T11:50:52.100Z,3.50
2023-02-27T12:01:03.620Z,4.10
2023-02-27T12:11:14.916Z,3.80
2023-02-27T12:21:23.141Z,4.40
2023-02-27T12:31:37.714Z,4.97
2023-02-27T12:42:03.185Z,4.57
2023-02-27T12:52:18.614Z,4.43
2023-02-27T13:02:46.817Z,4.13
2023-02-27T13:12:54.829Z,4.63
2023-02-27T13:23:11.987Z,4.40
2023-02-27T13:33:23.424Z,4.27
2023-02-27T13:43:46.437Z,4.37
2023-02-27T13:54:09.993Z,4.07
2023-02-27T14:04:19.463Z,4.97
2023-02-27T14:14:44.411Z,4.13
2023-02-27T14:25:02.451Z,5.53
2023-02-27T14:35:07.500Z,4.90
2023-02-27T14:45:23.939Z,6.80
2023-02-27T14:55:30.087Z,5.80
2023-02-27T15:05:35.191Z,7.23
2023-02-27T15:15:38.488Z,6.20
2023-02-27T15:25:43.352Z,4.90
2023-02-27T15:35:47.404Z,5.27
2023-02-27T15:45:52.775Z,6.23
2023-02-27T15:55:59.402Z,6.27
2023-02-27T16:06:09.312Z,5.10
2023-02-27T16:16:26.442Z,5.70
2023-02-27T16:26:33.082Z,5.33
2023-02-27T16:36:36.390Z,5.37
2023-02-27T16:46:40.927Z,5.47
2023-02-27T16:56:46.383Z,5.33
2023-02-27T17:06:51.136Z,6.00
2023-02-27T17:16:54.423Z,6.07
2023-02-27T17:26:59.055Z,5.43
2023-02-27T17:37:02.244Z,6.03
2023-02-27T17:47:06.899Z,5.83
2023-02-27T17:57:11.889Z,6.10
2023-02-27T18:07:16.561Z,6.97
2023-02-27T18:17:19.883Z,6.50
2023-02-27T18:27:24.423Z,7.03
2023-02-27T18:37:27.618Z,7.10
2023-02-27T18:47:32.267Z,6.50
2023-02-27T18:57:35.547Z,7.30
2023-02-27T19:07:40.328Z,6.53
2023-02-27T19:17:43.463Z,7.13
2023-02-27T19:27:48.032Z,5.87
2023-02-27T19:37:56.866Z,6.47
2023-02-27T19:48:01.591Z,5.90
2023-02-27T20:18:45.938Z,5.87
2023-02-27T20:28:50.874Z,5.17
2023-02-27T20:38:55.565Z,5.53
2023-02-27T20:49:02.176Z,6.13
2023-02-27T20:59:08.448Z,4.97
2023-02-27T21:09:11.747Z,5.33
2023-02-27T21:19:16.413Z,4.97
2023-02-27T21:29:21.330Z,6.70
2023-02-27T21:39:28.710Z,6.23
2023-02-27T21:49:31.964Z,5.03
2023-02-27T21:59:36.528Z,6.30
2023-02-27T22:09:39.708Z,5.93
2023-02-27T22:19:44.491Z,5.83
2023-02-27T22:29:47.726Z,5.90
2023-02-27T22:39:52.276Z,6.83
2023-02-27T22:49:55.479Z,6.50
2023-02-27T23:00:00.009Z,6.67
2023-02-27T23:10:05.056Z,5.77
2023-02-27T23:20:11.552Z,7.47
2023-02-27T23:30:15.696Z,5.97
2023-02-27T23:40:21.458Z,5.80
2023-02-27T23:50:26.652Z,6.70
